Time;durP1;ratioP1;P1;durP2;ratioP2;P2;SDS_P1;SDS_P2;PMS_P1;PMS_P2;Temp;Humidity;BMP_temperature;BMP_pressure;BME280_temperature;BME280_humidity;BME280_pressure;Samples;Min_cycle;Max_cycle;Signal;HPM_P1;HPM_P2
2023/01/10 00:01:25;;;;;;;35.60;15.80;;;;;;;6.71;100.00;97929.97;135653;1275;22546;-61
2023/01/10 00:04:28;;;;;;;;;;;;;;;6.78;100.00;97933.02;135725;1259;22507;-61
2023/01/10 00:07:31;;;;;;;41.20;17.70;;;;;;;6.80;100.00;97933.78;135719;1278;22563;-61
2023/01/10 00:10:33;;;;;;;;;;;;;;;6.74;100.00;97934.98;135684;1278;22553;-60
2023/01/10 00:13:36;;;;;;;36.90;16.60;;;;;;;6.65;100.00;97944.37;135716;1262;24219;-63
2023/01/10 00:16:39;;;;;;;39.40;16.60;;;;;;;6.62;100.00;97950.10;135718;1267;22540;-60
2023/01/10 00:19:41;;;;;;;39.50;17.30;;;;;;;6.61;100.00;97951.23;135720;1277;22551;-60
2023/01/10 00:22:44;;;;;;;39.90;17.80;;;;;;;6.74;100.00;97945.79;135741;1264;22563;-60
2023/01/10 00:25:47;;;;;;;41.70;19.00;;;;;;;6.74;100.00;97944.92;135724;1278;22555;-61
2023/01/10 00:28:49;;;;;;;39.00;17.90;;;;;;;6.72;100.00;97950.38;135700;1277;22557;-61
2023/01/10 00:31:52;;;;;;;40.30;17.90;;;;;;;6.71;100.00;97957.90;135650;1277;22573;-61
2023/01/10 00:34:54;;;;;;;39.30;18.20;;;;;;;6.72;100.00;97962.41;135714;1277;22550;-59
2023/01/10 00:38:00;;;;;;;35.20;15.80;;;;;;;6.76;100.00;97962.52;135694;1275;24308;-59
2023/01/10 00:43:55;;;;;;;40.00;16.60;;;;;;;6.82;100.00;97966.34;135746;1278;22549;-59
2023/01/10 00:44:29;;;;;;;38.60;17.80;;;;;;;6.88;100.00;97967.02;135723;1277;22542;-64
2023/01/10 00:47:32;;;;;;;41.20;17.60;;;;;;;6.93;100.00;97966.21;135740;1278;22560;-64
2023/01/10 00:50:34;;;;;;;39.40;17.70;;;;;;;6.94;100.00;97972.55;135755;1278;22653;-62
2023/01/10 00:53:37;;;;;;;40.60;19.90;;;;;;;6.79;100.00;97977.09;135676;1277;26628;-61
2023/01/10 00:56:39;;;;;;;35.60;16.00;;;;;;;6.71;100.00;97975.10;135625;1277;22565;-59
2023/01/10 00:59:42;;;;;;;;;;;;;;;6.78;100.00;97975.27;135738;1278;22551;-59
2023/01/10 01:02:44;;;;;;;29.50;12.50;;;;;;;6.83;100.00;97978.62;135687;1277;22530;-59
2023/01/10 01:05:48;;;;;;;30.60;12.40;;;;;;;6.71;100.00;97979.13;135704;1262;23286;-60
2023/01/10 01:08:50;;;;;;;30.20;12.50;;;;;;;6.54;100.00;97988.30;135700;1278;22537;-61
2023/01/10 01:11:52;;;;;;;33.00;14.10;;;;;;;6.46;100.00;97992.06;135666;1278;22541;-60
2023/01/10 01:14:55;;;;;;;33.00;15.10;;;;;;;6.46;100.00;97991.34;135724;1259;22583;-60
2023/01/10 01:17:57;;;;;;;35.60;15.60;;;;;;;6.43;100.00;97992.88;135730;1277;22651;-61
2023/01/10 01:21:02;;;;;;;36.00;15.70;;;;;;;6.49;100.00;97994.48;135694;1278;22580;-63
2023/01/10 01:24:05;;;;;;;37.20;15.90;;;;;;;6.52;100.00;97999.02;135729;1277;25441;-59
2023/01/10 01:27:07;;;;;;;36.50;16.00;;;;;;;6.45;100.00;98002.88;135719;1278;25847;-60
2023/01/10 01:30:09;;;;;;;35.90;16.10;;;;;;;6.43;100.00;98008.04;135743;1277;25598;-63
2023/01/10 01:33:12;;;;;;;;;;;;;;;6.47;100.00;98013.19;135757;1278;25342;-60
2023/01/10 01:36:14;;;;;;;35.30;15.30;;;;;;;6.50;100.00;98013.00;135714;1278;24261;-62
2023/01/10 01:39:17;;;;;;;;;;;;;;;6.46;100.00;98015.45;135777;1278;22529;-61
2023/01/10 01:42:19;;;;;;;31.40;13.60;;;;;;;6.45;100.00;98019.02;135714;1259;23159;-62
2023/01/10 01:45:22;;;;;;;33.20;14.90;;;;;;;6.51;100.00;98026.66;135707;1278;22570;-63
2023/01/10 01:48:24;;;;;;;36.00;15.50;;;;;;;6.54;100.00;98025.63;135669;1277;22562;-61
2023/01/10 01:51:27;;;;;;;36.70;15.70;;;;;;;6.55;100.00;98022.46;135707;1275;22598;-62
2023/01/10 01:54:29;;;;;;;36.20;16.20;;;;;;;6.53;100.00;98019.77;135666;1277;22525;-60
2023/01/10 01:57:32;;;;;;;35.30;15.00;;;;;;;6.54;100.00;98020.73;135704;1278;22652;-61
2023/01/10 02:00:34;;;;;;;35.80;15.90;;;;;;;6.60;100.00;98022.48;135662;1278;22593;-61
2023/01/10 02:03:37;;;;;;;36.20;16.80;;;;;;;6.67;100.00;98027.86;135721;1263;22550;-60
2023/01/10 02:06:39;;;;;;;36.30;15.90;;;;;;;6.68;100.00;98031.63;135672;1263;22543;-60
2023/01/10 02:09:42;;;;;;;37.00;16.90;;;;;;;6.76;100.00;98023.15;135743;1277;22572;-61
2023/01/10 02:12:44;;;;;;;37.00;15.60;;;;;;;6.88;100.00;98027.34;135679;1278;22572;-60
2023/01/10 02:15:46;;;;;;;36.10;16.50;;;;;;;6.97;100.00;98022.63;135678;1269;22558;-61
2023/01/10 02:18:49;;;;;;;35.20;15.50;;;;;;;6.97;100.00;98027.33;135703;1278;22534;-61
2023/01/10 02:21:51;;;;;;;37.40;17.70;;;;;;;7.01;100.00;98024.13;135671;1278;22543;-60
2023/01/10 02:24:54;;;;;;;34.90;15.10;;;;;;;6.91;100.00;98031.83;135655;1277;22561;-59
2023/01/10 02:27:56;;;;;;;35.60;16.20;;;;;;;6.90;100.00;98033.45;135677;1259;22540;-59
2023/01/10 02:30:59;;;;;;;31.30;14.20;;;;;;;6.76;100.00;98032.88;135600;1268;24215;-61
2023/01/10 02:34:01;;;;;;;30.90;13.60;;;;;;;6.63;100.00;98034.48;135696;1264;22555;-61
2023/01/10 02:37:04;;;;;;;33.00;14.80;;;;;;;6.61;100.00;98045.38;135731;1278;22645;-60
2023/01/10 02:40:06;;;;;;;;;;;;;;;6.76;100.00;98045.03;135741;1278;22514;-62
2023/01/10 02:43:08;;;;;;;35.10;16.10;;;;;;;6.78;100.00;98045.08;135689;1268;22618;-61
2023/01/10 02:46:11;;;;;;;37.90;17.30;;;;;;;6.77;100.00;98046.86;135703;1259;22542;-60
2023/01/10 02:49:13;;;;;;;38.60;17.90;;;;;;;6.77;100.00;98048.78;135705;1259;22547;-60
2023/01/10 02:52:16;;;;;;;44.70;22.50;;;;;;;6.82;100.00;98051.47;135689;1269;22529;-60
2023/01/10 02:55:18;;;;;;;45.10;21.40;;;;;;;6.88;100.00;98053.38;135751;1278;22598;-60
2023/01/10 02:58:20;;;;;;;40.50;19.20;;;;;;;6.98;100.00;98052.61;135662;1277;24270;-63
2023/01/10 03:01:23;;;;;;;40.60;18.30;;;;;;;7.04;100.00;98052.48;135598;1277;22560;-59
2023/01/10 03:04:25;;;;;;;40.90;18.40;;;;;;;7.04;100.00;98053.52;135641;1254;22544;-60
2023/01/10 03:07:28;;;;;;;39.70;18.30;;;;;;;6.94;100.00;98055.30;135649;1277;22536;-61
2023/01/10 03:10:30;;;;;;;39.80;17.40;;;;;;;6.87;100.00;98064.24;135762;1268;22532;-62
2023/01/10 03:13:33;;;;;;;41.10;18.90;;;;;;;6.67;100.00;98070.09;135701;1278;22545;-62
2023/01/10 03:16:35;;;;;;;39.40;16.90;;;;;;;6.61;100.00;98072.66;135734;1278;22610;-60
2023/01/10 03:19:38;;;;;;;37.00;16.90;;;;;;;6.56;100.00;98079.20;135731;1264;22530;-60
2023/01/10 03:22:40;;;;;;;36.40;15.70;;;;;;;6.54;100.00;98081.21;135739;1278;22673;-61
2023/01/10 03:25:42;;;;;;;39.40;17.20;;;;;;;6.61;100.00;98084.15;135729;1278;22577;-60
2023/01/10 03:28:45;;;;;;;37.30;17.00;;;;;;;6.71;100.00;98091.00;135704;1254;22678;-59
2023/01/10 03:31:47;;;;;;;37.90;16.20;;;;;;;6.67;100.00;98098.74;135711;1268;22548;-60
2023/01/10 03:34:50;;;;;;;37.00;15.70;;;;;;;6.64;100.00;98104.80;135726;1260;22645;-62
2023/01/10 03:37:52;;;;;;;;;;;;;;;6.65;100.00;98108.08;135728;1258;22524;-61
2023/01/10 03:40:55;;;;;;;37.10;16.00;;;;;;;6.59;100.00;98112.02;135710;1259;22547;-59
2023/01/10 03:47:18;;;;;;;36.60;16.40;;;;;;;6.39;100.00;98119.92;135716;1277;22560;-62
2023/01/10 03:50:20;;;;;;;35.10;15.60;;;;;;;6.40;100.00;98125.59;135732;1264;22539;-62
2023/01/10 03:53:23;;;;;;;39.70;16.20;;;;;;;6.40;100.00;98129.95;135694;1267;22537;-60
2023/01/10 03:56:25;;;;;;;36.50;15.70;;;;;;;6.49;100.00;98137.75;135732;1268;22526;-60
2023/01/10 03:59:27;;;;;;;36.30;15.60;;;;;;;6.51;100.00;98140.06;135707;1267;22534;-60
2023/01/10 04:02:30;;;;;;;38.90;16.20;;;;;;;6.54;100.00;98144.96;135602;1278;22549;-62
2023/01/10 04:05:33;;;;;;;36.50;15.40;;;;;;;6.53;100.00;98147.61;135694;1266;22532;-61
2023/01/10 04:08:35;;;;;;;36.00;15.40;;;;;;;6.62;100.00;98153.04;135726;1277;22574;-60
2023/01/10 04:11:37;;;;;;;35.50;15.70;;;;;;;6.59;100.00;98158.41;135706;1268;22526;-60
2023/01/10 04:14:40;;;;;;;37.90;15.80;;;;;;;6.54;100.00;98163.05;135733;1263;22547;-62
2023/01/10 04:17:44;;;;;;;39.00;17.00;;;;;;;6.47;100.00;98167.58;135678;1278;22533;-60
2023/01/10 04:20:47;;;;;;;38.00;16.70;;;;;;;6.44;100.00;98170.20;135756;1278;26508;-61
2023/01/10 04:23:49;;;;;;;38.00;16.80;;;;;;;6.40;100.00;98181.85;135688;1278;25530;-59
2023/01/10 04:26:52;;;;;;;;;;;;;;;6.44;100.00;98183.20;135695;1277;22526;-62
2023/01/10 04:29:54;;;;;;;43.30;18.20;;;;;;;6.40;100.00;98190.89;135732;1278;22573;-60
2023/01/10 04:32:56;;;;;;;36.60;16.80;;;;;;;6.28;100.00;98195.52;135733;1277;22571;-60
2023/01/10 04:35:59;;;;;;;38.10;16.30;;;;;;;6.28;100.00;98200.02;135730;1259;23126;-61
2023/01/10 04:39:01;;;;;;;37.20;16.50;;;;;;;6.36;100.00;98204.43;135749;1277;22519;-60
2023/01/10 04:42:04;;;;;;;37.40;16.50;;;;;;;6.26;100.00;98208.28;135759;1278;22544;-60
2023/01/10 04:45:06;;;;;;;;;;;;;;;6.20;100.00;98213.95;135736;1277;23911;-60
2023/01/10 04:48:09;;;;;;;39.60;16.90;;;;;;;6.20;100.00;98220.23;135744;1277;25637;-64
2023/01/10 04:51:11;;;;;;;36.60;16.10;;;;;;;6.42;100.00;98224.96;135781;1277;22559;-63
2023/01/10 04:54:14;;;;;;;37.10;16.80;;;;;;;6.44;100.00;98234.05;135720;1277;22693;-60
2023/01/10 04:57:16;;;;;;;38.80;16.90;;;;;;;6.28;100.00;98236.67;135736;1278;22555;-62
2023/01/10 05:00:18;;;;;;;38.60;16.70;;;;;;;6.45;100.00;98242.72;135744;1278;22549;-61
2023/01/10 05:03:21;;;;;;;39.00;17.30;;;;;;;6.38;100.00;98245.14;135688;1263;22553;-62
2023/01/10 05:06:23;;;;;;;35.90;16.00;;;;;;;6.36;100.00;98252.23;135706;1277;22549;-62
2023/01/10 05:09:26;;;;;;;39.10;16.90;;;;;;;6.39;100.00;98256.05;135729;1277;22620;-60
2023/01/10 05:12:28;;;;;;;39.70;17.10;;;;;;;6.39;100.00;98256.19;135773;1278;23123;-59
2023/01/10 05:15:31;;;;;;;38.50;17.20;;;;;;;6.69;100.00;98256.34;135706;1268;22621;-61
2023/01/10 05:18:33;;;;;;;39.40;17.60;;;;;;;6.77;100.00;98257.88;135710;1268;24236;-60
2023/01/10 05:21:36;;;;;;;37.30;17.10;;;;;;;6.77;100.00;98261.30;135678;1278;22526;-60
2023/01/10 05:24:38;;;;;;;40.50;17.60;;;;;;;6.79;100.00;98263.81;135740;1278;22666;-60
2023/01/10 05:27:40;;;;;;;40.90;16.70;;;;;;;6.81;100.00;98265.97;135769;1263;22545;-59
2023/01/10 05:30:43;;;;;;;38.60;17.70;;;;;;;6.91;100.00;98266.46;135712;1278;22591;-60
2023/01/10 05:33:45;;;;;;;42.10;17.30;;;;;;;6.75;100.00;98267.86;135701;1277;22535;-59
2023/01/10 05:36:48;;;;;;;38.20;17.20;;;;;;;6.79;100.00;98274.77;135749;1277;22557;-59
2023/01/10 05:39:50;;;;;;;37.70;16.10;;;;;;;6.75;100.00;98275.85;135728;1264;22547;-59
2023/01/10 05:42:53;;;;;;;38.40;17.90;;;;;;;6.75;100.00;98281.58;135722;1277;22648;-60
2023/01/10 05:45:55;;;;;;;;;;;;;;;6.81;100.00;98285.09;135765;1278;22562;-60
2023/01/10 05:48:58;;;;;;;40.70;17.80;;;;;;;6.81;100.00;98282.48;135737;1278;25439;-59
2023/01/10 05:52:00;;;;;;;39.60;18.10;;;;;;;6.70;100.00;98289.31;135749;1260;22546;-61
2023/01/10 05:55:02;;;;;;;43.20;18.70;;;;;;;6.75;100.00;98288.86;135693;1259;22535;-60
2023/01/10 05:58:05;;;;;;;42.00;18.30;;;;;;;6.79;100.00;98294.57;135682;1277;25233;-60
2023/01/10 06:01:08;;;;;;;45.70;19.60;;;;;;;6.70;100.00;98301.85;135685;1277;25825;-60
2023/01/10 06:04:10;;;;;;;40.20;18.80;;;;;;;6.56;100.00;98309.68;135630;1258;22669;-59
2023/01/10 06:07:12;;;;;;;38.20;18.40;;;;;;;6.49;100.00;98317.89;135716;1277;22534;-61
2023/01/10 06:10:15;;;;;;;41.80;19.40;;;;;;;6.43;100.00;98313.66;135757;1278;22549;-63
2023/01/10 06:13:17;;;;;;;40.70;18.40;;;;;;;6.43;100.00;98316.65;135692;1268;22567;-62
2023/01/10 06:16:20;;;;;;;41.30;19.10;;;;;;;6.45;100.00;98313.58;135738;1277;22547;-62
2023/01/10 06:19:23;;;;;;;42.10;18.70;;;;;;;6.43;100.00;98321.67;135691;1278;24259;-63
2023/01/10 06:22:26;;;;;;;;;;;;;;;6.48;100.00;98327.14;135768;1260;22526;-62
2023/01/10 06:25:29;;;;;;;42.70;19.60;;;;;;;6.53;100.00;98335.76;135754;1260;24183;-61
2023/01/10 06:28:31;;;;;;;43.70;20.40;;;;;;;6.48;100.00;98341.89;135727;1263;23141;-62
2023/01/10 06:31:34;;;;;;;45.00;21.50;;;;;;;6.53;100.00;98352.24;135763;1260;22574;-61
2023/01/10 06:34:36;;;;;;;50.00;22.30;;;;;;;6.42;100.00;98356.27;135728;1278;22566;-60
2023/01/10 06:37:39;;;;;;;47.50;21.90;;;;;;;6.37;100.00;98358.45;135770;1268;22571;-63
2023/01/10 06:40:41;;;;;;;45.40;21.20;;;;;;;6.33;100.00;98364.55;135745;1260;22540;-59
2023/01/10 06:43:44;;;;;;;47.80;22.40;;;;;;;6.36;100.00;98364.42;135792;1278;22650;-61
2023/01/10 06:46:46;;;;;;;45.70;21.10;;;;;;;6.33;100.00;98374.98;135739;1277;24366;-60
2023/01/10 06:49:49;;;;;;;44.50;21.70;;;;;;;6.38;100.00;98380.95;135735;1269;22537;-59
2023/01/10 06:52:52;;;;;;;45.20;21.60;;;;;;;6.38;100.00;98386.88;135670;1278;25252;-62
2023/01/10 06:55:56;;;;;;;46.50;21.80;;;;;;;6.39;100.00;98390.48;135727;1268;24216;-60
2023/01/10 06:58:59;;;;;;;45.70;21.70;;;;;;;6.34;100.00;98399.24;135713;1277;22567;-60
2023/01/10 07:02:01;;;;;;;49.40;22.50;;;;;;;6.31;100.00;98401.13;135747;1277;22533;-60
2023/01/10 07:05:03;;;;;;;49.10;22.60;;;;;;;6.29;100.00;98403.84;135733;1277;22852;-62
2023/01/10 07:08:06;;;;;;;47.30;21.70;;;;;;;6.26;100.00;98405.73;135757;1278;22537;-61
2023/01/10 07:11:08;;;;;;;46.80;22.60;;;;;;;6.20;100.00;98411.02;135709;1277;23099;-61
2023/01/10 07:14:10;;;;;;;46.00;22.40;;;;;;;6.22;100.00;98415.61;135748;1276;22531;-60
2023/01/10 07:17:13;;;;;;;45.10;21.20;;;;;;;6.26;100.00;98420.33;135741;1270;22643;-60
2023/01/10 07:20:15;;;;;;;46.90;21.90;;;;;;;6.18;100.00;98426.92;135739;1269;23052;-60
2023/01/10 07:23:18;;;;;;;44.90;22.30;;;;;;;6.17;100.00;98430.44;135740;1278;22551;-60
2023/01/10 07:26:20;;;;;;;41.60;20.10;;;;;;;6.25;100.00;98433.55;135713;1277;22541;-61
2023/01/10 07:29:23;;;;;;;49.60;22.50;;;;;;;6.27;100.00;98439.01;135768;1269;22613;-60
2023/01/10 07:32:25;;;;;;;44.90;20.80;;;;;;;6.27;100.00;98442.99;135731;1278;22555;-60
2023/01/10 07:35:27;;;;;;;50.80;21.60;;;;;;;6.24;100.00;98442.29;135763;1260;23116;-61
2023/01/10 07:38:30;;;;;;;45.50;21.30;;;;;;;6.21;100.00;98451.61;135766;1268;22540;-61
2023/01/10 07:41:32;;;;;;;46.90;20.40;;;;;;;6.16;100.00;98452.21;135751;1278;22538;-63
2023/01/10 07:44:35;;;;;;;46.10;19.90;;;;;;;6.20;100.00;98451.33;135764;1268;22571;-62
2023/01/10 07:47:37;;;;;;;44.40;21.20;;;;;;;6.21;100.00;98454.39;135767;1278;22516;-60
2023/01/10 07:50:40;;;;;;;44.20;20.40;;;;;;;6.28;100.00;98453.88;135741;1270;22544;-62
2023/01/10 07:53:42;;;;;;;45.70;20.40;;;;;;;6.31;100.00;98455.81;135782;1260;22651;-61
2023/01/10 07:56:46;;;;;;;40.90;19.00;;;;;;;6.29;100.00;98458.50;135743;1260;22568;-60
2023/01/10 07:59:48;;;;;;;44.80;20.30;;;;;;;6.22;100.00;98459.55;135756;1278;22784;-60
2023/01/10 08:02:51;;;;;;;45.80;21.20;;;;;;;6.24;100.00;98457.74;135692;1278;22546;-60
2023/01/10 08:05:53;;;;;;;;;;;;;;;6.25;100.00;98457.66;135774;1278;22514;-62
2023/01/10 08:08:56;;;;;;;48.00;21.70;;;;;;;6.22;100.00;98457.45;135744;1277;22567;-61
2023/01/10 08:11:58;;;;;;;42.80;20.00;;;;;;;6.18;100.00;98460.27;135756;1277;22567;-60
2023/01/10 08:15:00;;;;;;;47.80;20.80;;;;;;;6.15;100.00;98462.84;135756;1277;22544;-61
2023/01/10 08:18:03;;;;;;;46.50;19.80;;;;;;;6.29;100.00;98470.66;135739;1277;22539;-61
2023/01/10 08:21:05;;;;;;;42.50;18.80;;;;;;;6.22;100.00;98470.66;135741;1277;22542;-62
2023/01/10 08:24:08;;;;;;;;;;;;;;;6.27;100.00;98475.63;135774;1277;22510;-59
2023/01/10 08:27:10;;;;;;;41.10;18.90;;;;;;;6.33;100.00;98480.41;135732;1278;22597;-60
2023/01/10 08:30:13;;;;;;;45.20;19.60;;;;;;;6.33;100.00;98477.44;135785;1277;22554;-60
2023/01/10 08:33:16;;;;;;;41.90;18.90;;;;;;;6.34;100.00;98474.95;135765;1277;22549;-60
2023/01/10 08:36:18;;;;;;;43.10;18.60;;;;;;;6.30;100.00;98478.64;135749;1278;25603;-60
2023/01/10 08:39:21;;;;;;;42.00;18.60;;;;;;;6.31;100.00;98486.39;135750;1277;22537;-60
2023/01/10 08:42:23;;;;;;;38.90;17.70;;;;;;;6.30;100.00;98491.30;135753;1259;22535;-62
2023/01/10 08:45:26;;;;;;;38.30;17.20;;;;;;;6.38;100.00;98492.28;135729;1266;22541;-60
2023/01/10 08:48:28;;;;;;;40.80;18.20;;;;;;;6.40;100.00;98498.80;135705;1277;24236;-63
2023/01/10 08:51:31;;;;;;;41.80;17.50;;;;;;;6.43;100.00;98496.73;135781;1278;24387;-62
2023/01/10 08:54:33;;;;;;;41.00;18.30;;;;;;;6.46;100.00;98498.14;135747;1277;22543;-60
2023/01/10 08:57:35;;;;;;;43.60;18.80;;;;;;;6.47;100.00;98500.20;135722;1277;22583;-62
2023/01/10 09:00:38;;;;;;;42.60;18.60;;;;;;;6.34;100.00;98506.88;135722;1277;22567;-62
2023/01/10 09:03:40;;;;;;;36.70;16.50;;;;;;;6.35;100.00;98511.73;135765;1254;22547;-61
2023/01/10 09:06:42;;;;;;;39.00;18.00;;;;;;;6.26;100.00;98511.44;135750;1278;23939;-60
2023/01/10 09:09:45;;;;;;;39.90;17.90;;;;;;;6.27;100.00;98518.90;135776;1278;22596;-61
2023/01/10 09:12:58;;;;;;;43.50;18.30;;;;;;;6.28;100.00;98527.50;135719;1278;22528;-61
2023/01/10 09:16:01;;;;;;;42.50;17.40;;;;;;;6.32;100.00;98532.91;135709;1277;22559;-62
2023/01/10 09:19:03;;;;;;;41.90;18.50;;;;;;;6.33;100.00;98527.27;135745;1278;22546;-60
2023/01/10 09:22:05;;;;;;;42.00;18.70;;;;;;;6.39;100.00;98526.10;135706;1277;22533;-60
2023/01/10 09:25:08;;;;;;;38.60;18.30;;;;;;;6.42;100.00;98527.02;135685;1278;22536;-60
2023/01/10 09:28:10;;;;;;;40.40;17.80;;;;;;;6.38;100.00;98531.52;135654;1260;22532;-60
2023/01/10 09:31:13;;;;;;;36.50;16.00;;;;;;;6.38;100.00;98531.71;135697;1277;22649;-60
2023/01/10 09:34:15;;;;;;;40.20;17.30;;;;;;;6.35;100.00;98532.73;135710;1278;22530;-60
2023/01/10 09:37:18;;;;;;;;;;;;;;;6.39;100.00;98538.09;135711;1277;22524;-60
2023/01/10 09:40:20;;;;;;;40.80;17.60;;;;;;;6.48;100.00;98541.84;135750;1277;22544;-61
2023/01/10 09:43:23;;;;;;;41.70;17.90;;;;;;;6.49;100.00;98548.20;135787;1261;22536;-62
2023/01/10 09:46:25;;;;;;;44.60;18.20;;;;;;;6.54;100.00;98545.20;135729;1277;22537;-62
2023/01/10 09:49:28;;;;;;;39.30;17.00;;;;;;;6.57;100.00;98547.13;135760;1277;22539;-61
2023/01/10 09:52:30;;;;;;;39.50;17.90;;;;;;;6.56;100.00;98552.70;135707;1260;25873;-63
2023/01/10 09:55:32;;;;;;;40.10;17.00;;;;;;;6.59;100.00;98548.05;135742;1261;23077;-61
2023/01/10 09:58:35;;;;;;;39.60;17.00;;;;;;;6.62;100.00;98551.73;135790;1277;22539;-60
2023/01/10 10:01:37;;;;;;;38.20;18.30;;;;;;;6.56;100.00;98554.48;135745;1277;22532;-62
2023/01/10 10:04:40;;;;;;;39.00;17.60;;;;;;;6.52;100.00;98565.60;135729;1277;22543;-60
2023/01/10 10:07:42;;;;;;;;;;;;;;;6.46;100.00;98567.13;135756;1278;22523;-61
2023/01/10 10:10:45;;;;;;;39.90;18.30;;;;;;;6.49;100.00;98569.41;135770;1277;22530;-61
2023/01/10 10:13:55;;;;;;;40.90;17.90;;;;;;;6.49;100.00;98571.31;135643;1277;22559;-60
2023/01/10 10:16:58;;;;;;;41.90;18.50;;;;;;;6.47;100.00;98576.80;135695;1277;22536;-63
2023/01/10 10:20:00;;;;;;;40.00;17.70;;;;;;;6.47;100.00;98578.21;135788;1277;23021;-60
2023/01/10 10:23:03;;;;;;;37.90;17.00;;;;;;;6.44;100.00;98580.44;131655;1256;5381793;-61
2023/01/10 10:26:05;;;;;;;41.50;18.10;;;;;;;6.40;100.00;98584.23;135727;1278;25436;-63
2023/01/10 10:29:07;;;;;;;40.10;18.60;;;;;;;6.40;100.00;98581.30;135756;1277;22560;-61
2023/01/10 10:32:10;;;;;;;39.60;18.10;;;;;;;6.44;100.00;98587.73;135736;1277;25829;-61
2023/01/10 10:35:13;;;;;;;42.80;19.10;;;;;;;6.50;100.00;98591.05;135755;1277;22536;-63
2023/01/10 10:38:15;;;;;;;41.10;18.10;;;;;;;6.52;100.00;98598.63;135704;1278;22536;-62
2023/01/10 10:41:18;;;;;;;40.70;18.40;;;;;;;6.52;100.00;98601.93;135771;1277;25384;-60
2023/01/10 10:44:20;;;;;;;39.40;17.50;;;;;;;6.55;100.00;98611.48;135720;1270;24200;-60
2023/01/10 10:47:22;;;;;;;42.60;18.60;;;;;;;6.59;100.00;98614.97;135776;1259;22546;-61
2023/01/10 10:50:25;;;;;;;43.70;18.10;;;;;;;6.66;100.00;98615.33;135737;1277;22544;-60
2023/01/10 10:53:27;;;;;;;42.20;19.20;;;;;;;6.67;100.00;98617.50;135721;1277;22536;-61
2023/01/10 10:56:30;;;;;;;44.60;19.90;;;;;;;6.67;100.00;98624.33;135767;1261;22544;-60
2023/01/10 10:59:32;;;;;;;42.00;19.40;;;;;;;6.70;100.00;98626.43;135776;1277;22575;-61
2023/01/10 11:02:34;;;;;;;39.70;18.90;;;;;;;6.69;100.00;98626.49;135748;1277;22539;-62
2023/01/10 11:05:37;;;;;;;39.20;17.40;;;;;;;6.72;100.00;98631.54;135774;1277;22529;-60
2023/01/10 11:08:41;;;;;;;38.10;17.60;;;;;;;6.68;100.00;98636.59;135717;1258;22583;-60
2023/01/10 11:11:43;;;;;;;39.70;17.70;;;;;;;6.73;100.00;98637.21;135751;1277;22585;-62
2023/01/10 11:14:46;;;;;;;41.70;18.80;;;;;;;6.69;100.00;98641.41;135722;1278;22539;-61
2023/01/10 11:17:48;;;;;;;43.50;19.70;;;;;;;6.72;100.00;98642.66;135757;1278;22543;-60
2023/01/10 11:20:51;;;;;;;41.90;20.30;;;;;;;6.73;100.00;98644.52;135737;1278;22547;-60
2023/01/10 11:23:53;;;;;;;44.00;19.20;;;;;;;6.77;100.00;98649.39;135752;1259;22558;-60
2023/01/10 11:26:56;;;;;;;42.80;19.10;;;;;;;6.69;100.00;98652.18;135777;1257;22550;-62
2023/01/10 11:29:59;;;;;;;39.90;18.70;;;;;;;6.67;100.00;98656.10;135777;1277;22547;-60
2023/01/10 11:33:01;;;;;;;42.20;19.70;;;;;;;6.66;100.00;98651.48;135747;1277;22530;-62
2023/01/10 11:36:03;;;;;;;43.50;19.50;;;;;;;6.71;100.00;98650.34;135786;1277;22548;-61
2023/01/10 11:39:06;;;;;;;45.50;20.60;;;;;;;6.73;100.00;98652.48;135760;1277;22564;-61
2023/01/10 11:42:08;;;;;;;45.20;22.70;;;;;;;6.78;100.00;98653.84;135780;1277;22536;-59
2023/01/10 11:45:10;;;;;;;46.90;21.70;;;;;;;6.79;100.00;98657.29;135750;1257;22532;-59
2023/01/10 11:48:13;;;;;;;47.60;23.50;;;;;;;6.76;100.00;98663.48;135755;1278;24411;-60
2023/01/10 11:51:15;;;;;;;47.70;22.30;;;;;;;6.68;100.00;98670.80;135740;1254;22542;-62
2023/01/10 11:54:18;;;;;;;44.80;20.40;;;;;;;6.73;100.00;98679.42;135745;1277;22542;-61
2023/01/10 11:57:20;;;;;;;41.90;18.90;;;;;;;6.66;100.00;98690.89;135736;1277;22553;-63
2023/01/10 12:00:23;;;;;;;42.40;18.90;;;;;;;6.58;100.00;98698.05;135781;1277;26528;-62
2023/01/10 12:03:27;;;;;;;41.60;19.70;;;;;;;6.58;100.00;98701.38;135759;1278;22618;-62
2023/01/10 12:06:29;;;;;;;44.10;19.80;;;;;;;6.57;100.00;98709.38;135773;1278;22539;-61
2023/01/10 12:09:32;;;;;;;39.60;18.80;;;;;;;6.59;100.00;98717.48;135761;1276;22673;-61
2023/01/10 12:12:34;;;;;;;41.20;17.80;;;;;;;6.55;100.00;98722.86;135746;1277;22592;-61
2023/01/10 12:15:36;;;;;;;41.90;18.50;;;;;;;6.50;100.00;98729.67;135774;1277;22552;-63
2023/01/10 12:18:39;;;;;;;38.10;17.90;;;;;;;6.45;100.00;98734.79;135802;1277;22542;-62
2023/01/10 12:21:41;;;;;;;42.60;18.70;;;;;;;6.38;100.00;98742.91;135762;1277;22584;-60
2023/01/10 12:24:44;;;;;;;;;;;;;;;6.34;100.00;98747.61;135787;1259;22541;-59
2023/01/10 12:27:49;;;;;;;44.80;20.40;;;;;;;6.31;100.00;98755.04;135756;1259;22561;-61
2023/01/10 12:30:51;;;;;;;46.90;21.90;;;;;;;6.32;100.00;98753.79;135766;1277;24722;-61
2023/01/10 12:33:54;;;;;;;50.30;23.50;;;;;;;6.28;100.00;98757.62;135734;1278;22587;-59
2023/01/10 12:36:56;;;;;;;46.60;21.50;;;;;;;6.28;100.00;98758.67;135718;1270;22530;-59
2023/01/10 12:39:59;;;;;;;50.10;22.50;;;;;;;6.26;100.00;98754.73;135726;1273;22533;-59
2023/01/10 12:46:22;;;;;;;49.80;23.40;;;;;;;6.29;100.00;98767.30;135780;1255;23660;-60
2023/01/10 12:49:24;;;;;;;49.90;24.10;;;;;;;6.27;100.00;98772.59;135767;1277;23885;-59
2023/01/10 12:52:27;;;;;;;48.90;24.20;;;;;;;6.28;100.00;98776.02;135779;1278;22532;-60
2023/01/10 12:55:29;;;;;;;47.00;23.00;;;;;;;6.35;100.00;98782.12;135775;1277;22547;-60
2023/01/10 12:58:32;;;;;;;48.70;24.30;;;;;;;6.36;100.00;98785.73;135780;1277;22661;-60
2023/01/10 13:01:35;;;;;;;;;;;;;;;6.35;100.00;98788.40;135698;1277;22623;-60
2023/01/10 13:04:37;;;;;;;51.90;24.50;;;;;;;6.35;100.00;98790.45;135692;1259;24206;-60
2023/01/10 13:07:40;;;;;;;;;;;;;;;6.35;100.00;98790.42;135723;1277;22520;-60
2023/01/10 13:10:42;;;;;;;52.20;25.10;;;;;;;6.33;100.00;98797.98;135684;1277;22654;-61
2023/01/10 13:13:45;;;;;;;52.30;24.90;;;;;;;6.30;100.00;98800.58;135659;1277;22543;-60
2023/01/10 13:16:47;;;;;;;52.10;24.40;;;;;;;6.27;100.00;98805.40;135808;1277;22664;-60
2023/01/10 13:19:50;;;;;;;54.10;24.90;;;;;;;6.28;100.00;98810.23;135753;1277;22566;-60
2023/01/10 13:22:52;;;;;;;53.70;26.10;;;;;;;6.25;100.00;98812.27;135778;1258;22557;-59
2023/01/10 13:25:55;;;;;;;50.60;24.50;;;;;;;6.25;100.00;98820.77;135757;1277;22551;-60
2023/01/10 13:28:57;;;;;;;;;;;;;;;6.25;100.00;98824.77;135789;1259;22580;-61
2023/01/10 13:32:00;;;;;;;51.80;26.10;;;;;;;6.30;100.00;98829.98;135781;1267;22536;-60
2023/01/10 13:35:02;;;;;;;51.80;25.30;;;;;;;6.34;100.00;98841.24;135745;1277;24272;-62
2023/01/10 13:38:04;;;;;;;47.40;24.70;;;;;;;6.33;100.00;98849.80;135741;1277;22572;-62
2023/01/10 13:41:07;;;;;;;51.10;24.40;;;;;;;6.34;100.00;98851.65;135803;1254;22556;-62
2023/01/10 13:44:09;;;;;;;48.60;25.10;;;;;;;6.33;100.00;98852.36;135767;1277;22533;-62
2023/01/10 13:47:12;;;;;;;51.90;26.80;;;;;;;6.34;100.00;98852.70;135796;1277;24394;-62
2023/01/10 13:50:14;;;;;;;;;;;;;;;6.29;100.00;98856.20;78377;1277;1005897;-60
2023/01/10 13:53:16;;;;;;;50.90;26.00;;;;;;;6.29;100.00;98860.38;67821;1277;1017832;-60
2023/01/10 13:56:19;;;;;;;51.80;25.10;;;;;;;6.20;100.00;98864.78;67855;1277;1016203;-60
2023/01/10 14:02:41;;;;;;;50.00;24.70;;;;;;;6.11;100.00;98877.60;67849;1277;1016372;-60
2023/01/10 14:05:44;;;;;;;;;;;;;;;6.09;100.00;98876.69;67814;1277;1016391;-60